sensor_id;sensor_type;location;lat;lon;timestamp;P1;durP1;ratioP1;P2;durP2;ratioP2
47749;SDS011;49810;48.160;10.812;2023-02-21T00:00:30;11.75;;;7.00;;
47749;SDS011;49810;48.160;10.812;2023-02-21T00:03:16;11.05;;;7.10;;
47749;SDS011;49810;48.160;10.812;2023-02-21T00:06:01;12.68;;;6.82;;
47749;SDS011;49810;48.160;10.812;2023-02-21T00:08:48;11.55;;;7.28;;
47749;SDS011;49810;48.160;10.812;2023-02-21T00:11:33;11.52;;;7.18;;
47749;SDS011;49810;48.160;10.812;2023-02-21T00:14:19;13.43;;;7.07;;
47749;SDS011;49810;48.160;10.812;2023-02-21T00:17:04;12.80;;;7.18;;
47749;SDS011;49810;48.160;10.812;2023-02-21T00:19:50;15.02;;;6.85;;
47749;SDS011;49810;48.160;10.812;2023-02-21T00:22:35;12.07;;;7.15;;
47749;SDS011;49810;48.160;10.812;2023-02-21T00:25:22;12.90;;;6.78;;
47749;SDS011;49810;48.160;10.812;2023-02-21T00:28:07;13.82;;;7.72;;
47749;SDS011;49810;48.160;10.812;2023-02-21T00:30:53;14.40;;;7.70;;
47749;SDS011;49810;48.160;10.812;2023-02-21T00:33:39;31.83;;;14.23;;
47749;SDS011;49810;48.160;10.812;2023-02-21T00:36:24;20.58;;;10.45;;
47749;SDS011;49810;48.160;10.812;2023-02-21T00:39:10;17.60;;;9.63;;
47749;SDS011;49810;48.160;10.812;2023-02-21T00:41:56;17.10;;;7.75;;
47749;SDS011;49810;48.160;10.812;2023-02-21T00:44:42;14.15;;;8.07;;
47749;SDS011;49810;48.160;10.812;2023-02-21T00:47:27;17.48;;;8.35;;
47749;SDS011;49810;48.160;10.812;2023-02-21T00:50:13;16.65;;;8.32;;
47749;SDS011;49810;48.160;10.812;2023-02-21T00:52:58;13.43;;;8.20;;
47749;SDS011;49810;48.160;10.812;2023-02-21T00:55:43;17.52;;;8.23;;
47749;SDS011;49810;48.160;10.812;2023-02-21T00:58:30;13.48;;;7.60;;
47749;SDS011;49810;48.160;10.812;2023-02-21T01:01:15;16.80;;;8.35;;
47749;SDS011;49810;48.160;10.812;2023-02-21T01:04:01;14.05;;;8.05;;
47749;SDS011;49810;48.160;10.812;2023-02-21T01:06:49;14.60;;;8.60;;
47749;SDS011;49810;48.160;10.812;2023-02-21T01:09:35;14.32;;;8.20;;
47749;SDS011;49810;48.160;10.812;2023-02-21T01:12:20;13.82;;;8.50;;
47749;SDS011;49810;48.160;10.812;2023-02-21T01:15:07;15.38;;;7.57;;
47749;SDS011;49810;48.160;10.812;2023-02-21T01:17:52;14.02;;;7.57;;
47749;SDS011;49810;48.160;10.812;2023-02-21T01:20:38;13.75;;;8.00;;
47749;SDS011;49810;48.160;10.812;2023-02-21T01:23:24;13.10;;;7.80;;
47749;SDS011;49810;48.160;10.812;2023-02-21T01:26:10;12.45;;;7.70;;
47749;SDS011;49810;48.160;10.812;2023-02-21T01:28:56;13.70;;;8.20;;
47749;SDS011;49810;48.160;10.812;2023-02-21T01:31:43;15.43;;;7.75;;
47749;SDS011;49810;48.160;10.812;2023-02-21T01:34:29;17.33;;;8.98;;
47749;SDS011;49810;48.160;10.812;2023-02-21T01:37:14;14.63;;;7.57;;
47749;SDS011;49810;48.160;10.812;2023-02-21T01:39:59;14.98;;;7.35;;
47749;SDS011;49810;48.160;10.812;2023-02-21T01:42:44;13.00;;;8.07;;
47749;SDS011;49810;48.160;10.812;2023-02-21T01:48:38;13.10;;;7.57;;
47749;SDS011;49810;48.160;10.812;2023-02-21T01:51:24;13.80;;;7.90;;
47749;SDS011;49810;48.160;10.812;2023-02-21T01:54:10;14.05;;;7.63;;
47749;SDS011;49810;48.160;10.812;2023-02-21T01:56:56;20.02;;;7.82;;
47749;SDS011;49810;48.160;10.812;2023-02-21T01:59:42;15.40;;;7.78;;
47749;SDS011;49810;48.160;10.812;2023-02-21T02:02:41;14.05;;;8.15;;
47749;SDS011;49810;48.160;10.812;2023-02-21T02:05:31;13.38;;;7.65;;
47749;SDS011;49810;48.160;10.812;2023-02-21T02:08:17;14.30;;;7.75;;
47749;SDS011;49810;48.160;10.812;2023-02-21T02:11:07;16.38;;;8.23;;
47749;SDS011;49810;48.160;10.812;2023-02-21T02:14:00;13.88;;;7.65;;
47749;SDS011;49810;48.160;10.812;2023-02-21T02:16:32;13.57;;;7.60;;
47749;SDS011;49810;48.160;10.812;2023-02-21T02:22:03;15.00;;;7.57;;
47749;SDS011;49810;48.160;10.812;2023-02-21T02:24:47;15.23;;;8.18;;
47749;SDS011;49810;48.160;10.812;2023-02-21T02:27:28;17.92;;;10.02;;
47749;SDS011;49810;48.160;10.812;2023-02-21T02:30:02;15.77;;;9.55;;
47749;SDS011;49810;48.160;10.812;2023-02-21T02:32:42;15.70;;;9.38;;
47749;SDS011;49810;48.160;10.812;2023-02-21T02:35:14;15.02;;;8.52;;
47749;SDS011;49810;48.160;10.812;2023-02-21T02:37:46;11.65;;;7.57;;
47749;SDS011;49810;48.160;10.812;2023-02-21T02:40:19;14.05;;;8.40;;
47749;SDS011;49810;48.160;10.812;2023-02-21T02:42:54;16.58;;;8.35;;
47749;SDS011;49810;48.160;10.812;2023-02-21T02:45:25;16.15;;;8.43;;
47749;SDS011;49810;48.160;10.812;2023-02-21T02:47:56;18.98;;;9.57;;
47749;SDS011;49810;48.160;10.812;2023-02-21T02:50:29;15.73;;;9.52;;
47749;SDS011;49810;48.160;10.812;2023-02-21T02:52:59;17.33;;;9.02;;
47749;SDS011;49810;48.160;10.812;2023-02-21T02:55:39;19.58;;;9.07;;
47749;SDS011;49810;48.160;10.812;2023-02-21T02:58:08;14.98;;;8.55;;
47749;SDS011;49810;48.160;10.812;2023-02-21T03:00:38;16.75;;;8.77;;
47749;SDS011;49810;48.160;10.812;2023-02-21T03:03:10;18.08;;;8.13;;
47749;SDS011;49810;48.160;10.812;2023-02-21T03:05:47;14.55;;;8.38;;
47749;SDS011;49810;48.160;10.812;2023-02-21T03:08:18;17.08;;;8.60;;
47749;SDS011;49810;48.160;10.812;2023-02-21T03:10:48;19.00;;;8.98;;
47749;SDS011;49810;48.160;10.812;2023-02-21T03:13:20;17.10;;;8.52;;
47749;SDS011;49810;48.160;10.812;2023-02-21T03:15:54;15.65;;;9.40;;
47749;SDS011;49810;48.160;10.812;2023-02-21T03:18:25;20.95;;;10.45;;
47749;SDS011;49810;48.160;10.812;2023-02-21T03:20:57;15.95;;;9.95;;
47749;SDS011;49810;48.160;10.812;2023-02-21T03:23:26;20.67;;;10.63;;
47749;SDS011;49810;48.160;10.812;2023-02-21T03:25:55;20.30;;;10.55;;
47749;SDS011;49810;48.160;10.812;2023-02-21T03:28:24;19.35;;;10.75;;
47749;SDS011;49810;48.160;10.812;2023-02-21T03:30:53;18.63;;;9.48;;
47749;SDS011;49810;48.160;10.812;2023-02-21T03:33:22;18.45;;;9.45;;
47749;SDS011;49810;48.160;10.812;2023-02-21T03:35:51;19.23;;;8.70;;
47749;SDS011;49810;48.160;10.812;2023-02-21T03:38:20;17.63;;;9.00;;
47749;SDS011;49810;48.160;10.812;2023-02-21T03:40:48;16.35;;;9.27;;
47749;SDS011;49810;48.160;10.812;2023-02-21T03:43:16;18.10;;;9.60;;
47749;SDS011;49810;48.160;10.812;2023-02-21T03:45:52;19.30;;;9.32;;
47749;SDS011;49810;48.160;10.812;2023-02-21T03:48:20;14.88;;;8.48;;
47749;SDS011;49810;48.160;10.812;2023-02-21T03:51:01;16.48;;;7.90;;
47749;SDS011;49810;48.160;10.812;2023-02-21T03:53:35;15.13;;;8.10;;
47749;SDS011;49810;48.160;10.812;2023-02-21T03:56:05;13.05;;;7.32;;
47749;SDS011;49810;48.160;10.812;2023-02-21T03:58:53;16.42;;;8.18;;
47749;SDS011;49810;48.160;10.812;2023-02-21T04:01:21;16.50;;;7.85;;
47749;SDS011;49810;48.160;10.812;2023-02-21T04:03:51;14.48;;;8.05;;
47749;SDS011;49810;48.160;10.812;2023-02-21T04:06:20;16.73;;;7.90;;
47749;SDS011;49810;48.160;10.812;2023-02-21T04:08:50;17.38;;;8.00;;
47749;SDS011;49810;48.160;10.812;2023-02-21T04:11:19;14.75;;;7.70;;
47749;SDS011;49810;48.160;10.812;2023-02-21T04:13:48;15.07;;;7.43;;
47749;SDS011;49810;48.160;10.812;2023-02-21T04:16:16;14.00;;;7.90;;
47749;SDS011;49810;48.160;10.812;2023-02-21T04:18:46;14.23;;;7.65;;
47749;SDS011;49810;48.160;10.812;2023-02-21T04:21:15;16.52;;;8.27;;
47749;SDS011;49810;48.160;10.812;2023-02-21T04:23:43;17.52;;;8.73;;
47749;SDS011;49810;48.160;10.812;2023-02-21T04:26:12;17.00;;;9.07;;
47749;SDS011;49810;48.160;10.812;2023-02-21T04:28:45;15.27;;;8.57;;
47749;SDS011;49810;48.160;10.812;2023-02-21T04:31:13;19.10;;;9.50;;
47749;SDS011;49810;48.160;10.812;2023-02-21T04:33:42;17.52;;;8.52;;
47749;SDS011;49810;48.160;10.812;2023-02-21T04:36:12;14.68;;;8.02;;
47749;SDS011;49810;48.160;10.812;2023-02-21T04:38:41;18.15;;;8.98;;
47749;SDS011;49810;48.160;10.812;2023-02-21T04:41:09;17.80;;;8.70;;
47749;SDS011;49810;48.160;10.812;2023-02-21T04:43:41;18.55;;;9.25;;
47749;SDS011;49810;48.160;10.812;2023-02-21T04:46:09;18.38;;;8.65;;
47749;SDS011;49810;48.160;10.812;2023-02-21T04:48:41;16.88;;;8.55;;
47749;SDS011;49810;48.160;10.812;2023-02-21T04:51:09;15.80;;;8.93;;
47749;SDS011;49810;48.160;10.812;2023-02-21T04:53:42;17.17;;;9.52;;
47749;SDS011;49810;48.160;10.812;2023-02-21T04:56:09;21.50;;;9.75;;
47749;SDS011;49810;48.160;10.812;2023-02-21T04:58:38;16.42;;;9.00;;
47749;SDS011;49810;48.160;10.812;2023-02-21T05:01:13;18.60;;;9.43;;
47749;SDS011;49810;48.160;10.812;2023-02-21T05:03:41;16.20;;;8.90;;
47749;SDS011;49810;48.160;10.812;2023-02-21T05:06:09;17.13;;;9.38;;
47749;SDS011;49810;48.160;10.812;2023-02-21T05:08:37;16.33;;;8.55;;
47749;SDS011;49810;48.160;10.812;2023-02-21T05:11:05;16.02;;;8.88;;
47749;SDS011;49810;48.160;10.812;2023-02-21T05:13:34;16.38;;;8.20;;
47749;SDS011;49810;48.160;10.812;2023-02-21T05:16:02;16.23;;;8.13;;
47749;SDS011;49810;48.160;10.812;2023-02-21T05:18:35;18.35;;;8.00;;
47749;SDS011;49810;48.160;10.812;2023-02-21T05:21:04;18.83;;;8.60;;
47749;SDS011;49810;48.160;10.812;2023-02-21T05:23:32;15.38;;;8.80;;
47749;SDS011;49810;48.160;10.812;2023-02-21T05:26:06;16.00;;;8.20;;
47749;SDS011;49810;48.160;10.812;2023-02-21T05:28:34;17.17;;;9.43;;
47749;SDS011;49810;48.160;10.812;2023-02-21T05:31:03;19.40;;;10.50;;
47749;SDS011;49810;48.160;10.812;2023-02-21T05:33:31;20.55;;;10.43;;
47749;SDS011;49810;48.160;10.812;2023-02-21T05:36:00;15.13;;;7.75;;
47749;SDS011;49810;48.160;10.812;2023-02-21T05:38:28;18.75;;;8.43;;
47749;SDS011;49810;48.160;10.812;2023-02-21T05:40:56;14.18;;;7.72;;
47749;SDS011;49810;48.160;10.812;2023-02-21T05:43:24;18.55;;;9.15;;
47749;SDS011;49810;48.160;10.812;2023-02-21T05:45:54;18.42;;;9.75;;
47749;SDS011;49810;48.160;10.812;2023-02-21T05:48:22;12.88;;;7.70;;
47749;SDS011;49810;48.160;10.812;2023-02-21T05:50:50;25.33;;;11.30;;
47749;SDS011;49810;48.160;10.812;2023-02-21T05:53:19;17.15;;;9.18;;
47749;SDS011;49810;48.160;10.812;2023-02-21T05:55:47;16.63;;;8.02;;
47749;SDS011;49810;48.160;10.812;2023-02-21T05:58:15;18.27;;;8.20;;
47749;SDS011;49810;48.160;10.812;2023-02-21T06:00:43;14.38;;;7.38;;
47749;SDS011;49810;48.160;10.812;2023-02-21T06:03:11;15.52;;;7.82;;
47749;SDS011;49810;48.160;10.812;2023-02-21T06:05:38;17.05;;;8.32;;
47749;SDS011;49810;48.160;10.812;2023-02-21T06:08:06;15.43;;;8.10;;
47749;SDS011;49810;48.160;10.812;2023-02-21T06:10:39;20.17;;;10.18;;
47749;SDS011;49810;48.160;10.812;2023-02-21T06:13:07;17.95;;;8.48;;
47749;SDS011;49810;48.160;10.812;2023-02-21T06:15:35;13.40;;;6.47;;
47749;SDS011;49810;48.160;10.812;2023-02-21T06:18:03;14.63;;;6.97;;
47749;SDS011;49810;48.160;10.812;2023-02-21T06:20:31;12.50;;;7.05;;
47749;SDS011;49810;48.160;10.812;2023-02-21T06:22:59;17.73;;;6.97;;
47749;SDS011;49810;48.160;10.812;2023-02-21T06:25:26;15.27;;;7.38;;
47749;SDS011;49810;48.160;10.812;2023-02-21T06:27:56;13.50;;;6.57;;
47749;SDS011;49810;48.160;10.812;2023-02-21T06:30:23;14.85;;;7.95;;
47749;SDS011;49810;48.160;10.812;2023-02-21T06:32:51;13.88;;;6.93;;
47749;SDS011;49810;48.160;10.812;2023-02-21T06:35:19;12.98;;;6.97;;
47749;SDS011;49810;48.160;10.812;2023-02-21T06:37:47;13.80;;;6.10;;
47749;SDS011;49810;48.160;10.812;2023-02-21T06:40:15;12.18;;;7.03;;
47749;SDS011;49810;48.160;10.812;2023-02-21T06:42:43;15.85;;;7.63;;
47749;SDS011;49810;48.160;10.812;2023-02-21T06:45:12;14.40;;;6.32;;
47749;SDS011;49810;48.160;10.812;2023-02-21T06:47:40;14.95;;;6.00;;
47749;SDS011;49810;48.160;10.812;2023-02-21T06:50:08;14.30;;;7.05;;
47749;SDS011;49810;48.160;10.812;2023-02-21T06:52:37;15.05;;;6.68;;
47749;SDS011;49810;48.160;10.812;2023-02-21T06:55:05;17.80;;;7.97;;
47749;SDS011;49810;48.160;10.812;2023-02-21T06:57:34;13.35;;;5.82;;
47749;SDS011;49810;48.160;10.812;2023-02-21T07:00:03;10.23;;;4.38;;
47749;SDS011;49810;48.160;10.812;2023-02-21T07:02:33;8.25;;;4.55;;
47749;SDS011;49810;48.160;10.812;2023-02-21T07:05:01;12.02;;;6.25;;
47749;SDS011;49810;48.160;10.812;2023-02-21T07:07:30;11.73;;;6.95;;
47749;SDS011;49810;48.160;10.812;2023-02-21T07:09:58;9.98;;;5.88;;
47749;SDS011;49810;48.160;10.812;2023-02-21T07:12:26;9.13;;;5.53;;
47749;SDS011;49810;48.160;10.812;2023-02-21T07:14:55;10.88;;;4.93;;
47749;SDS011;49810;48.160;10.812;2023-02-21T07:17:24;10.07;;;4.40;;
47749;SDS011;49810;48.160;10.812;2023-02-21T07:19:53;8.35;;;3.85;;
47749;SDS011;49810;48.160;10.812;2023-02-21T07:22:21;9.20;;;3.85;;
47749;SDS011;49810;48.160;10.812;2023-02-21T07:24:51;7.50;;;3.85;;
47749;SDS011;49810;48.160;10.812;2023-02-21T07:27:20;9.20;;;3.80;;
47749;SDS011;49810;48.160;10.812;2023-02-21T07:29:50;13.07;;;4.32;;
47749;SDS011;49810;48.160;10.812;2023-02-21T07:32:18;8.82;;;4.20;;
47749;SDS011;49810;48.160;10.812;2023-02-21T07:34:48;8.38;;;3.53;;
47749;SDS011;49810;48.160;10.812;2023-02-21T07:37:19;9.15;;;3.90;;
47749;SDS011;49810;48.160;10.812;2023-02-21T07:39:47;7.97;;;3.60;;
47749;SDS011;49810;48.160;10.812;2023-02-21T07:42:15;9.57;;;4.07;;
47749;SDS011;49810;48.160;10.812;2023-02-21T07:44:45;8.60;;;4.20;;
47749;SDS011;49810;48.160;10.812;2023-02-21T07:47:13;9.20;;;3.97;;
47749;SDS011;49810;48.160;10.812;2023-02-21T07:49:41;8.07;;;4.13;;
47749;SDS011;49810;48.160;10.812;2023-02-21T07:52:09;6.93;;;3.40;;
47749;SDS011;49810;48.160;10.812;2023-02-21T07:54:39;9.88;;;4.05;;
47749;SDS011;49810;48.160;10.812;2023-02-21T07:57:06;9.75;;;3.65;;
47749;SDS011;49810;48.160;10.812;2023-02-21T07:59:34;8.13;;;3.90;;
47749;SDS011;49810;48.160;10.812;2023-02-21T08:02:04;8.48;;;3.72;;
47749;SDS011;49810;48.160;10.812;2023-02-21T08:04:32;8.30;;;3.92;;
47749;SDS011;49810;48.160;10.812;2023-02-21T08:07:00;6.75;;;3.80;;
47749;SDS011;49810;48.160;10.812;2023-02-21T08:09:29;8.43;;;3.58;;
47749;SDS011;49810;48.160;10.812;2023-02-21T08:11:58;6.57;;;3.20;;
47749;SDS011;49810;48.160;10.812;2023-02-21T08:14:26;9.32;;;3.45;;
47749;SDS011;49810;48.160;10.812;2023-02-21T08:16:55;9.30;;;3.53;;
47749;SDS011;49810;48.160;10.812;2023-02-21T08:19:23;6.65;;;2.85;;
47749;SDS011;49810;48.160;10.812;2023-02-21T08:21:51;7.45;;;3.15;;
47749;SDS011;49810;48.160;10.812;2023-02-21T08:24:19;6.03;;;3.03;;
47749;SDS011;49810;48.160;10.812;2023-02-21T08:26:47;7.07;;;3.17;;
47749;SDS011;49810;48.160;10.812;2023-02-21T08:29:16;5.18;;;2.70;;
47749;SDS011;49810;48.160;10.812;2023-02-21T08:31:44;7.95;;;3.10;;
47749;SDS011;49810;48.160;10.812;2023-02-21T08:34:12;10.60;;;3.13;;
47749;SDS011;49810;48.160;10.812;2023-02-21T08:36:42;9.05;;;2.80;;
47749;SDS011;49810;48.160;10.812;2023-02-21T08:39:11;6.82;;;2.90;;
47749;SDS011;49810;48.160;10.812;2023-02-21T08:41:41;7.15;;;3.60;;
47749;SDS011;49810;48.160;10.812;2023-02-21T08:44:09;5.30;;;2.83;;
47749;SDS011;49810;48.160;10.812;2023-02-21T08:46:39;7.82;;;3.25;;
47749;SDS011;49810;48.160;10.812;2023-02-21T08:49:07;7.78;;;3.00;;
47749;SDS011;49810;48.160;10.812;2023-02-21T08:51:39;9.30;;;3.10;;
47749;SDS011;49810;48.160;10.812;2023-02-21T08:54:07;9.68;;;2.90;;
47749;SDS011;49810;48.160;10.812;2023-02-21T08:56:34;5.65;;;2.70;;
47749;SDS011;49810;48.160;10.812;2023-02-21T08:59:02;9.13;;;2.90;;
47749;SDS011;49810;48.160;10.812;2023-02-21T09:01:32;5.78;;;3.00;;
47749;SDS011;49810;48.160;10.812;2023-02-21T09:04:01;7.22;;;2.78;;
47749;SDS011;49810;48.160;10.812;2023-02-21T09:06:30;5.30;;;2.60;;
47749;SDS011;49810;48.160;10.812;2023-02-21T09:08:58;7.55;;;3.10;;
47749;SDS011;49810;48.160;10.812;2023-02-21T09:11:28;8.57;;;3.30;;
47749;SDS011;49810;48.160;10.812;2023-02-21T09:13:56;8.82;;;3.05;;
47749;SDS011;49810;48.160;10.812;2023-02-21T09:16:24;5.80;;;2.97;;
47749;SDS011;49810;48.160;10.812;2023-02-21T09:18:53;7.43;;;3.30;;
47749;SDS011;49810;48.160;10.812;2023-02-21T09:21:22;9.55;;;3.20;;
47749;SDS011;49810;48.160;10.812;2023-02-21T09:23:51;8.88;;;3.47;;
47749;SDS011;49810;48.160;10.812;2023-02-21T09:26:19;7.40;;;3.08;;
47749;SDS011;49810;48.160;10.812;2023-02-21T09:28:50;7.63;;;2.60;;
47749;SDS011;49810;48.160;10.812;2023-02-21T09:31:19;12.43;;;3.60;;
47749;SDS011;49810;48.160;10.812;2023-02-21T09:33:47;5.65;;;2.83;;
47749;SDS011;49810;48.160;10.812;2023-02-21T09:36:15;7.55;;;2.88;;
47749;SDS011;49810;48.160;10.812;2023-02-21T09:38:50;7.85;;;3.13;;
47749;SDS011;49810;48.160;10.812;2023-02-21T09:41:19;5.43;;;3.05;;
47749;SDS011;49810;48.160;10.812;2023-02-21T09:43:47;6.65;;;2.80;;
47749;SDS011;49810;48.160;10.812;2023-02-21T09:46:17;13.88;;;3.42;;
47749;SDS011;49810;48.160;10.812;2023-02-21T09:48:46;7.25;;;2.95;;
47749;SDS011;49810;48.160;10.812;2023-02-21T09:51:14;7.43;;;3.13;;
47749;SDS011;49810;48.160;10.812;2023-02-21T09:53:44;6.63;;;2.90;;
47749;SDS011;49810;48.160;10.812;2023-02-21T09:56:17;5.28;;;3.15;;
47749;SDS011;49810;48.160;10.812;2023-02-21T09:58:47;7.05;;;3.03;;
47749;SDS011;49810;48.160;10.812;2023-02-21T10:01:19;8.27;;;2.80;;
47749;SDS011;49810;48.160;10.812;2023-02-21T10:03:50;6.55;;;2.60;;
47749;SDS011;49810;48.160;10.812;2023-02-21T10:06:22;6.45;;;2.95;;
47749;SDS011;49810;48.160;10.812;2023-02-21T10:08:52;6.38;;;2.70;;
47749;SDS011;49810;48.160;10.812;2023-02-21T10:11:24;4.45;;;2.33;;
47749;SDS011;49810;48.160;10.812;2023-02-21T10:14:00;3.80;;;2.10;;
47749;SDS011;49810;48.160;10.812;2023-02-21T10:16:31;4.50;;;2.20;;
47749;SDS011;49810;48.160;10.812;2023-02-21T10:19:02;5.85;;;2.50;;
47749;SDS011;49810;48.160;10.812;2023-02-21T10:21:31;6.72;;;2.50;;
47749;SDS011;49810;48.160;10.812;2023-02-21T10:24:02;4.57;;;2.33;;
47749;SDS011;49810;48.160;10.812;2023-02-21T10:26:32;5.28;;;2.17;;
47749;SDS011;49810;48.160;10.812;2023-02-21T10:29:01;4.65;;;2.10;;
47749;SDS011;49810;48.160;10.812;2023-02-21T10:31:31;5.00;;;2.28;;
47749;SDS011;49810;48.160;10.812;2023-02-21T10:34:01;3.97;;;2.10;;
47749;SDS011;49810;48.160;10.812;2023-02-21T10:36:29;5.95;;;2.05;;
47749;SDS011;49810;48.160;10.812;2023-02-21T10:38:58;5.95;;;2.22;;
47749;SDS011;49810;48.160;10.812;2023-02-21T10:41:31;6.97;;;2.00;;
47749;SDS011;49810;48.160;10.812;2023-02-21T10:44:02;4.03;;;2.08;;
47749;SDS011;49810;48.160;10.812;2023-02-21T10:46:32;3.72;;;1.90;;
47749;SDS011;49810;48.160;10.812;2023-02-21T10:49:09;6.45;;;2.10;;
47749;SDS011;49810;48.160;10.812;2023-02-21T10:51:44;5.30;;;1.95;;
47749;SDS011;49810;48.160;10.812;2023-02-21T10:54:16;6.30;;;1.80;;
47749;SDS011;49810;48.160;10.812;2023-02-21T10:56:46;4.97;;;2.00;;
47749;SDS011;49810;48.160;10.812;2023-02-21T10:59:18;4.40;;;1.70;;
47749;SDS011;49810;48.160;10.812;2023-02-21T11:01:47;2.78;;;1.30;;
47749;SDS011;49810;48.160;10.812;2023-02-21T11:07:07;4.10;;;1.15;;
47749;SDS011;49810;48.160;10.812;2023-02-21T11:09:37;2.20;;;1.10;;
47749;SDS011;49810;48.160;10.812;2023-02-21T11:12:15;3.35;;;1.17;;
47749;SDS011;49810;48.160;10.812;2023-02-21T11:14:44;4.20;;;1.55;;
47749;SDS011;49810;48.160;10.812;2023-02-21T11:17:15;3.10;;;1.48;;
47749;SDS011;49810;48.160;10.812;2023-02-21T11:19:45;2.63;;;1.30;;
47749;SDS011;49810;48.160;10.812;2023-02-21T11:22:14;3.47;;;1.30;;
47749;SDS011;49810;48.160;10.812;2023-02-21T11:24:46;4.72;;;1.33;;
47749;SDS011;49810;48.160;10.812;2023-02-21T11:27:17;2.10;;;0.93;;
47749;SDS011;49810;48.160;10.812;2023-02-21T11:29:46;2.30;;;1.10;;
47749;SDS011;49810;48.160;10.812;2023-02-21T11:32:19;3.10;;;0.98;;
47749;SDS011;49810;48.160;10.812;2023-02-21T11:34:48;2.58;;;1.10;;
47749;SDS011;49810;48.160;10.812;2023-02-21T11:37:16;3.53;;;0.85;;
47749;SDS011;49810;48.160;10.812;2023-02-21T11:39:49;3.28;;;1.10;;
47749;SDS011;49810;48.160;10.812;2023-02-21T11:42:26;3.22;;;1.00;;
47749;SDS011;49810;48.160;10.812;2023-02-21T11:45:16;2.47;;;1.00;;
47749;SDS011;49810;48.160;10.812;2023-02-21T11:47:51;3.65;;;0.70;;
47749;SDS011;49810;48.160;10.812;2023-02-21T11:50:23;1.73;;;0.95;;
47749;SDS011;49810;48.160;10.812;2023-02-21T11:52:53;1.52;;;0.80;;
47749;SDS011;49810;48.160;10.812;2023-02-21T11:55:23;1.30;;;0.55;;
47749;SDS011;49810;48.160;10.812;2023-02-21T11:57:57;2.60;;;0.90;;
47749;SDS011;49810;48.160;10.812;2023-02-21T12:00:29;2.05;;;0.95;;
47749;SDS011;49810;48.160;10.812;2023-02-21T12:03:07;2.85;;;0.90;;
47749;SDS011;49810;48.160;10.812;2023-02-21T12:05:44;2.03;;;0.93;;
47749;SDS011;49810;48.160;10.812;2023-02-21T12:08:19;2.50;;;0.80;;
47749;SDS011;49810;48.160;10.812;2023-02-21T12:10:54;1.73;;;0.70;;
47749;SDS011;49810;48.160;10.812;2023-02-21T12:13:28;2.55;;;0.80;;
47749;SDS011;49810;48.160;10.812;2023-02-21T12:16:00;1.88;;;0.80;;
47749;SDS011;49810;48.160;10.812;2023-02-21T12:18:35;1.15;;;0.60;;
47749;SDS011;49810;48.160;10.812;2023-02-21T12:21:12;1.95;;;0.68;;
47749;SDS011;49810;48.160;10.812;2023-02-21T12:23:45;2.22;;;0.77;;
47749;SDS011;49810;48.160;10.812;2023-02-21T12:26:19;2.70;;;0.80;;
47749;SDS011;49810;48.160;10.812;2023-02-21T12:28:56;3.75;;;0.80;;
47749;SDS011;49810;48.160;10.812;2023-02-21T12:31:30;2.53;;;0.70;;
47749;SDS011;49810;48.160;10.812;2023-02-21T12:34:03;2.40;;;0.82;;
47749;SDS011;49810;48.160;10.812;2023-02-21T12:39:23;2.85;;;0.88;;
47749;SDS011;49810;48.160;10.812;2023-02-21T12:41:59;1.95;;;0.90;;
47749;SDS011;49810;48.160;10.812;2023-02-21T12:44:32;3.30;;;0.90;;
47749;SDS011;49810;48.160;10.812;2023-02-21T12:47:03;1.42;;;0.70;;
47749;SDS011;49810;48.160;10.812;2023-02-21T12:49:36;1.50;;;0.75;;
47749;SDS011;49810;48.160;10.812;2023-02-21T12:52:08;1.25;;;0.70;;
47749;SDS011;49810;48.160;10.812;2023-02-21T12:54:42;2.67;;;0.93;;
47749;SDS011;49810;48.160;10.812;2023-02-21T12:57:15;2.25;;;0.70;;
47749;SDS011;49810;48.160;10.812;2023-02-21T12:59:48;1.73;;;0.70;;
47749;SDS011;49810;48.160;10.812;2023-02-21T13:02:20;2.10;;;0.80;;
47749;SDS011;49810;48.160;10.812;2023-02-21T13:04:52;1.75;;;0.70;;
47749;SDS011;49810;48.160;10.812;2023-02-21T13:07:22;3.28;;;0.75;;
47749;SDS011;49810;48.160;10.812;2023-02-21T13:09:54;1.95;;;0.80;;
47749;SDS011;49810;48.160;10.812;2023-02-21T13:12:24;1.30;;;0.88;;
47749;SDS011;49810;48.160;10.812;2023-02-21T13:14:55;1.13;;;0.77;;
47749;SDS011;49810;48.160;10.812;2023-02-21T13:17:25;2.65;;;0.95;;
47749;SDS011;49810;48.160;10.812;2023-02-21T13:19:54;4.07;;;0.90;;
47749;SDS011;49810;48.160;10.812;2023-02-21T13:25:15;2.20;;;0.90;;
47749;SDS011;49810;48.160;10.812;2023-02-21T13:27:50;1.25;;;0.70;;
47749;SDS011;49810;48.160;10.812;2023-02-21T13:30:22;3.22;;;0.85;;
47749;SDS011;49810;48.160;10.812;2023-02-21T13:32:52;0.88;;;0.50;;
47749;SDS011;49810;48.160;10.812;2023-02-21T13:35:24;1.77;;;0.82;;
47749;SDS011;49810;48.160;10.812;2023-02-21T13:37:55;2.03;;;0.77;;
47749;SDS011;49810;48.160;10.812;2023-02-21T13:40:24;2.38;;;0.80;;
47749;SDS011;49810;48.160;10.812;2023-02-21T13:42:59;2.22;;;0.90;;
47749;SDS011;49810;48.160;10.812;2023-02-21T13:45:31;2.38;;;0.80;;
47749;SDS011;49810;48.160;10.812;2023-02-21T13:50:52;2.08;;;0.80;;
47749;SDS011;49810;48.160;10.812;2023-02-21T13:53:21;2.70;;;0.90;;
47749;SDS011;49810;48.160;10.812;2023-02-21T13:58:50;1.20;;;0.60;;
47749;SDS011;49810;48.160;10.812;2023-02-21T14:07:11;2.15;;;0.85;;
47749;SDS011;49810;48.160;10.812;2023-02-21T14:09:41;2.58;;;0.73;;
47749;SDS011;49810;48.160;10.812;2023-02-21T14:12:12;2.17;;;0.80;;
47749;SDS011;49810;48.160;10.812;2023-02-21T14:14:42;2.40;;;0.80;;
47749;SDS011;49810;48.160;10.812;2023-02-21T14:17:12;1.95;;;0.80;;
47749;SDS011;49810;48.160;10.812;2023-02-21T14:19:41;2.45;;;0.80;;
47749;SDS011;49810;48.160;10.812;2023-02-21T14:22:11;3.80;;;1.10;;
47749;SDS011;49810;48.160;10.812;2023-02-21T14:24:41;1.90;;;0.73;;
47749;SDS011;49810;48.160;10.812;2023-02-21T14:32:54;1.70;;;0.73;;
47749;SDS011;49810;48.160;10.812;2023-02-21T14:35:25;3.42;;;0.73;;
47749;SDS011;49810;48.160;10.812;2023-02-21T14:37:58;2.50;;;0.88;;
47749;SDS011;49810;48.160;10.812;2023-02-21T14:40:29;2.70;;;0.65;;
47749;SDS011;49810;48.160;10.812;2023-02-21T14:43:03;4.38;;;1.40;;
47749;SDS011;49810;48.160;10.812;2023-02-21T14:45:43;2.25;;;0.85;;
47749;SDS011;49810;48.160;10.812;2023-02-21T14:48:18;1.63;;;0.73;;
47749;SDS011;49810;48.160;10.812;2023-02-21T14:51:04;1.98;;;0.70;;
47749;SDS011;49810;48.160;10.812;2023-02-21T14:53:44;2.58;;;0.80;;
47749;SDS011;49810;48.160;10.812;2023-02-21T14:56:34;3.55;;;0.80;;
47749;SDS011;49810;48.160;10.812;2023-02-21T14:59:11;1.33;;;0.70;;
47749;SDS011;49810;48.160;10.812;2023-02-21T15:01:54;3.22;;;0.93;;
47749;SDS011;49810;48.160;10.812;2023-02-21T15:04:25;1.58;;;0.80;;
47749;SDS011;49810;48.160;10.812;2023-02-21T15:07:00;3.90;;;0.90;;
47749;SDS011;49810;48.160;10.812;2023-02-21T15:09:35;1.67;;;0.82;;
47749;SDS011;49810;48.160;10.812;2023-02-21T15:12:03;2.05;;;0.75;;
47749;SDS011;49810;48.160;10.812;2023-02-21T15:14:33;1.40;;;0.70;;
47749;SDS011;49810;48.160;10.812;2023-02-21T15:17:09;2.33;;;0.80;;
47749;SDS011;49810;48.160;10.812;2023-02-21T15:19:37;2.28;;;0.90;;
47749;SDS011;49810;48.160;10.812;2023-02-21T15:22:14;3.35;;;1.10;;
47749;SDS011;49810;48.160;10.812;2023-02-21T15:27:27;2.22;;;1.15;;
47749;SDS011;49810;48.160;10.812;2023-02-21T15:30:05;2.47;;;1.00;;
47749;SDS011;49810;48.160;10.812;2023-02-21T15:32:35;2.45;;;0.90;;
47749;SDS011;49810;48.160;10.812;2023-02-21T15:35:03;2.05;;;0.80;;